createdAt,value
2018-11-20T00:01:35.226Z,90.73
2018-11-20T00:06:36.128Z,90.69
2018-11-20T00:11:36.897Z,90.47
2018-11-20T00:16:37.668Z,91.12
2018-11-20T00:21:38.438Z,91.77
2018-11-20T00:26:39.313Z,91.43
2018-11-20T00:31:40.121Z,91.60
2018-11-20T00:36:40.900Z,91.94
2018-11-20T00:41:41.662Z,92.10
2018-11-20T00:46:42.438Z,91.94
2018-11-20T00:51:43.257Z,91.97
2018-11-20T00:56:43.959Z,91.04
2018-11-20T01:01:44.659Z,90.87
2018-11-20T01:06:45.360Z,91.29
2018-11-20T01:11:46.051Z,90.50
2018-11-20T01:16:46.981Z,91.13
2018-11-20T01:21:47.710Z,90.89
2018-11-20T01:26:48.523Z,91.15
2018-11-20T01:31:49.336Z,91.53
2018-11-20T01:36:50.062Z,91.29
2018-11-20T01:41:50.810Z,90.99
2018-11-20T01:46:51.535Z,91.29
2018-11-20T01:51:52.549Z,90.85
2018-11-20T01:56:53.251Z,90.88
2018-11-20T02:01:53.977Z,91.25
2018-11-20T02:06:54.718Z,91.55
2018-11-20T02:11:55.492Z,91.30
2018-11-20T02:16:56.539Z,91.47
2018-11-20T02:21:57.239Z,90.87
2018-11-20T02:26:57.869Z,90.66
2018-11-20T02:31:58.596Z,91.12
2018-11-20T02:36:59.339Z,91.00
2018-11-20T02:42:00.110Z,91.22
2018-11-20T02:47:00.763Z,91.04
2018-11-20T02:52:01.504Z,91.33
2018-11-20T02:57:02.621Z,91.80
2018-11-20T03:02:03.303Z,92.08
2018-11-20T03:07:04.030Z,92.47
2018-11-20T03:12:04.716Z,91.95
2018-11-20T03:17:05.391Z,91.53
2018-11-20T03:22:06.028Z,92.31
2018-11-20T03:27:06.770Z,91.54
2018-11-20T03:32:07.456Z,92.01
2018-11-20T03:37:08.310Z,91.80
2018-11-20T03:42:09.287Z,91.81
2018-11-20T03:47:10.315Z,92.09
2018-11-20T03:52:11.548Z,92.18
2018-11-20T03:57:12.487Z,92.10
2018-11-20T04:02:13.603Z,92.19
2018-11-20T04:07:14.668Z,92.50
2018-11-20T04:12:15.697Z,92.27
2018-11-20T04:17:16.760Z,92.46
2018-11-20T04:22:18.868Z,92.52
2018-11-20T04:27:19.902Z,91.95
2018-11-20T04:32:21.551Z,92.19
2018-11-20T04:37:23.302Z,92.13
2018-11-20T04:42:24.590Z,92.27
2018-11-20T04:47:26.131Z,92.39
2018-11-20T04:52:27.462Z,92.16
2018-11-20T04:57:28.595Z,92.76
2018-11-20T05:02:29.639Z,92.29
2018-11-20T05:07:30.564Z,91.89
2018-11-20T05:12:31.678Z,92.54
2018-11-20T05:17:35.344Z,92.43
2018-11-20T05:22:36.381Z,91.51
2018-11-20T05:27:37.333Z,92.20
2018-11-20T05:32:38.440Z,92.37
2018-11-20T05:37:39.495Z,92.41
2018-11-20T05:42:40.384Z,91.93
2018-11-20T05:47:41.386Z,92.06
2018-11-20T05:52:44.713Z,91.74
2018-11-20T05:57:45.561Z,91.56
2018-11-20T06:02:46.362Z,91.63
2018-11-20T06:07:47.509Z,91.64
2018-11-20T06:12:48.420Z,91.38
2018-11-20T06:17:49.219Z,90.79
2018-11-20T06:22:51.009Z,91.22
2018-11-20T06:27:51.910Z,91.48
2018-11-20T06:32:52.628Z,91.45
2018-11-20T06:37:53.613Z,91.24
2018-11-20T06:42:54.514Z,91.00
2018-11-20T06:47:55.427Z,90.40
2018-11-20T06:52:56.711Z,89.87
2018-11-20T06:57:58.528Z,91.07
2018-11-20T07:02:59.212Z,90.60
2018-11-20T07:13:16.481Z,90.79
2018-11-20T07:18:18.346Z,90.71
2018-11-20T07:23:19.126Z,90.86
2018-11-20T07:28:19.956Z,90.17
2018-11-20T07:33:20.735Z,90.27
2018-11-20T07:38:21.633Z,89.84
2018-11-20T07:43:22.598Z,89.71
2018-11-20T07:48:23.322Z,89.38
2018-11-20T07:53:24.114Z,89.85
2018-11-20T07:58:24.978Z,89.79
2018-11-20T08:03:25.738Z,88.93
2018-11-20T08:08:26.675Z,90.44
2018-11-20T08:13:27.325Z,89.20
2018-11-20T08:18:28.214Z,88.82
2018-11-20T08:23:28.934Z,88.78
2018-11-20T08:28:31.714Z,88.54
2018-11-20T08:33:32.472Z,87.84
2018-11-20T08:38:33.135Z,88.22
2018-11-20T08:43:33.890Z,88.07
2018-11-20T08:48:34.580Z,87.75
2018-11-20T08:53:35.569Z,88.69
2018-11-20T08:58:36.202Z,88.49
2018-11-20T09:03:36.978Z,88.89
2018-11-20T09:08:37.768Z,88.76
2018-11-20T09:13:38.494Z,88.74
2018-11-20T09:18:39.246Z,89.12
2018-11-20T09:23:40.027Z,88.60
2018-11-20T09:28:40.690Z,87.96
2018-11-20T09:33:41.540Z,88.31
2018-11-20T09:38:42.383Z,88.40
2018-11-20T09:43:43.208Z,87.64
2018-11-20T09:48:43.921Z,88.66
2018-11-20T09:53:44.680Z,88.48
2018-11-20T09:58:45.445Z,87.82
2018-11-20T10:03:46.364Z,87.80
2018-11-20T10:08:47.243Z,87.60
2018-11-20T10:13:48.325Z,87.65
2018-11-20T10:18:49.055Z,88.01
2018-11-20T10:23:49.836Z,88.06
2018-11-20T10:28:50.563Z,87.61
2018-11-20T10:33:51.236Z,88.92
2018-11-20T10:38:52.017Z,87.02
2018-11-20T10:43:52.753Z,87.79
2018-11-20T10:48:53.490Z,87.11
2018-11-20T10:53:54.240Z,87.21
2018-11-20T10:58:55.122Z,87.22
2018-11-20T11:03:55.878Z,87.33
2018-11-20T11:08:56.826Z,88.19
2018-11-20T11:13:57.957Z,87.23
2018-11-20T11:18:58.722Z,87.79
2018-11-20T11:23:59.485Z,88.19
2018-11-20T11:29:00.286Z,88.15
2018-11-20T11:34:01.063Z,87.96
2018-11-20T11:39:01.929Z,87.72
2018-11-20T11:44:02.939Z,88.43
2018-11-20T11:49:04.056Z,88.62
2018-11-20T11:54:04.803Z,89.74
2018-11-20T11:59:05.616Z,89.00
2018-11-20T12:09:06.950Z,89.65
2018-11-20T12:14:07.797Z,89.86
2018-11-20T12:19:08.611Z,89.66
2018-11-20T12:24:52.933Z,89.75
2018-11-20T12:29:55.484Z,89.95
2018-11-20T12:34:56.648Z,88.95
2018-11-20T12:39:56.443Z,89.75
2018-11-20T12:44:56.691Z,90.03
2018-11-20T12:49:56.557Z,89.88
2018-11-20T12:54:57.363Z,90.57
2018-11-20T12:59:58.148Z,90.88
2018-11-20T13:04:58.726Z,90.07
2018-11-20T13:10:00.942Z,91.09
2018-11-20T13:15:01.139Z,90.83
2018-11-20T13:20:03.883Z,91.09
2018-11-20T13:25:02.931Z,91.40
2018-11-20T13:30:03.656Z,91.57
2018-11-20T13:35:04.400Z,91.35
2018-11-20T13:40:05.073Z,91.75
2018-11-20T13:45:06.050Z,92.07
2018-11-20T13:50:06.723Z,92.00
2018-11-20T13:55:07.405Z,92.90
2018-11-20T14:00:08.196Z,92.53
2018-11-20T14:05:08.864Z,92.98
2018-11-20T14:10:09.606Z,94.04
2018-11-20T14:15:10.630Z,93.84
2018-11-20T14:20:11.332Z,94.49
2018-11-20T14:25:12.076Z,95.93
2018-11-20T14:30:12.801Z,95.46
2018-11-20T14:35:13.550Z,96.82
2018-11-20T14:40:14.610Z,98.25
2018-11-20T14:45:15.236Z,98.74
2018-11-20T14:50:16.074Z,99.78
2018-11-20T14:55:16.779Z,100.00
2018-11-20T15:00:17.789Z,100.00
2018-11-20T15:05:18.514Z,100.00
2018-11-20T15:10:19.405Z,100.00
2018-11-20T15:15:21.191Z,100.00
2018-11-20T15:20:21.962Z,100.00
2018-11-20T15:25:22.752Z,100.00
2018-11-20T15:30:23.525Z,100.00
2018-11-20T15:35:24.486Z,100.00
2018-11-20T15:40:25.268Z,100.00
2018-11-20T15:45:29.194Z,100.00
2018-11-20T15:50:30.032Z,100.00
2018-11-20T15:55:30.689Z,100.00
2018-11-20T16:00:31.514Z,100.00
2018-11-20T16:05:32.291Z,100.00
2018-11-20T16:10:33.031Z,100.00
2018-11-20T16:15:33.687Z,100.00
2018-11-20T16:20:34.426Z,100.00
2018-11-20T16:25:35.096Z,100.00
2018-11-20T16:30:35.773Z,100.00
2018-11-20T16:35:36.699Z,100.00
2018-11-20T16:40:37.546Z,100.00
2018-11-20T16:45:38.560Z,100.00
2018-11-20T16:50:39.492Z,100.00
2018-11-20T16:55:40.253Z,100.00
2018-11-20T17:00:41.352Z,100.00
2018-11-20T17:05:50.029Z,100.00
2018-11-20T17:10:51.169Z,100.00
2018-11-20T17:15:51.938Z,100.00
2018-11-20T17:20:52.933Z,100.00
2018-11-20T17:25:53.962Z,100.00
2018-11-20T17:30:54.875Z,100.00
2018-11-20T17:35:55.536Z,100.00
2018-11-20T17:40:56.269Z,100.00
2018-11-20T17:45:58.077Z,100.00
2018-11-20T17:50:58.743Z,100.00
2018-11-20T17:55:59.582Z,100.00
2018-11-20T18:01:00.424Z,100.00
2018-11-20T18:06:01.093Z,100.00
2018-11-20T18:11:01.914Z,100.00
2018-11-20T18:16:05.698Z,100.00
2018-11-20T18:21:06.497Z,100.00
2018-11-20T18:26:07.175Z,100.00
2018-11-20T18:31:07.879Z,100.00
2018-11-20T18:36:08.490Z,100.00
2018-11-20T18:41:09.285Z,100.00
2018-11-20T18:46:10.043Z,100.00
2018-11-20T18:51:10.996Z,100.00
2018-11-20T18:56:11.693Z,100.00
2018-11-20T19:01:12.603Z,100.00
2018-11-20T19:09:40.699Z,100.00
2018-11-20T19:14:42.213Z,100.00
2018-11-20T19:23:10.004Z,100.00
2018-11-20T19:28:10.760Z,100.00
2018-11-20T19:33:11.427Z,100.00
2018-11-20T19:38:12.141Z,100.00
2018-11-20T19:43:12.893Z,100.00
2018-11-20T19:48:13.620Z,100.00
2018-11-20T19:53:14.400Z,100.00
2018-11-20T19:58:15.216Z,100.00
2018-11-20T20:03:16.197Z,100.00
2018-11-20T20:08:16.900Z,100.00
2018-11-20T20:13:17.700Z,100.00
2018-11-20T20:18:18.475Z,100.00
2018-11-20T20:23:19.143Z,100.00
2018-11-20T20:28:19.799Z,100.00
2018-11-20T20:33:20.527Z,100.00
2018-11-20T20:38:21.196Z,100.00
2018-11-20T20:43:21.999Z,100.00
2018-11-20T20:48:22.698Z,100.00
2018-11-20T20:53:23.441Z,100.00
2018-11-20T20:58:24.091Z,100.00
2018-11-20T21:03:24.828Z,100.00
2018-11-20T21:08:25.772Z,100.00
2018-11-20T21:13:26.601Z,100.00
2018-11-20T21:18:27.308Z,100.00
2018-11-20T21:23:28.072Z,100.00
2018-11-20T21:28:28.734Z,100.00
2018-11-20T21:33:29.444Z,100.00
2018-11-20T21:38:30.107Z,100.00
2018-11-20T21:43:30.856Z,100.00
2018-11-20T21:48:31.519Z,100.00
2018-11-20T21:53:32.308Z,100.00
2018-11-20T21:58:33.089Z,100.00
2018-11-20T22:03:33.811Z,100.00
2018-11-20T22:08:34.562Z,100.00
2018-11-20T22:13:35.242Z,100.00
2018-11-20T22:18:35.917Z,100.00
2018-11-20T22:23:36.618Z,100.00
2018-11-20T22:28:37.432Z,100.00
2018-11-20T22:33:38.143Z,100.00
2018-11-20T22:38:38.872Z,100.00
2018-11-20T22:43:39.686Z,100.00
2018-11-20T22:48:40.406Z,100.00
2018-11-20T22:53:41.047Z,100.00
2018-11-20T22:58:41.737Z,100.00
2018-11-20T23:03:42.529Z,100.00
2018-11-20T23:08:43.144Z,100.00
2018-11-20T23:13:43.897Z,100.00
2018-11-20T23:18:44.620Z,100.00
2018-11-20T23:23:45.542Z,100.00
2018-11-20T23:28:46.329Z,100.00
2018-11-20T23:33:47.135Z,100.00
2018-11-20T23:38:47.825Z,100.00
2018-11-20T23:43:48.639Z,100.00
2018-11-20T23:48:49.415Z,100.00
2018-11-20T23:53:50.168Z,100.00
2018-11-20T23:58:50.907Z,100.00
